createdAt,value
2023-04-04T00:02:30.153Z,7.15
2023-04-04T00:07:33.219Z,7.12
2023-04-04T00:12:36.630Z,7.09
2023-04-04T00:17:39.431Z,7.05
2023-04-04T00:22:42.437Z,6.99
2023-04-04T00:27:45.062Z,6.99
2023-04-04T00:32:47.882Z,7.06
2023-04-04T00:37:50.519Z,7.05
2023-04-04T00:42:53.872Z,7.10
2023-04-04T00:47:58.170Z,7.11
2023-04-04T00:53:01.168Z,7.08
2023-04-04T00:58:03.819Z,6.99
2023-04-04T01:03:07.990Z,6.93
2023-04-04T01:08:11.270Z,6.79
2023-04-04T01:13:15.773Z,6.61
2023-04-04T01:18:21.575Z,6.68
2023-04-04T01:23:30.527Z,6.67
2023-04-04T01:28:33.499Z,6.64
2023-04-04T01:33:43.455Z,6.62
2023-04-04T01:38:58.001Z,6.67
2023-04-04T01:44:03.087Z,6.66
2023-04-04T01:49:06.120Z,6.65
2023-04-04T01:54:10.772Z,6.60
2023-04-04T01:59:13.625Z,6.57
2023-04-04T02:04:16.637Z,6.49
2023-04-04T02:09:19.524Z,6.48
2023-04-04T02:14:22.961Z,6.46
2023-04-04T02:19:46.290Z,6.51
2023-04-04T02:24:48.874Z,6.48
2023-04-04T02:29:51.542Z,6.48
2023-04-04T02:34:54.219Z,6.47
2023-04-04T02:39:57.704Z,6.42
2023-04-04T02:45:01.303Z,6.35
2023-04-04T02:50:05.644Z,6.40
2023-04-04T02:55:08.848Z,6.35
2023-04-04T03:00:15.964Z,6.35
2023-04-04T03:05:18.700Z,6.29
2023-04-04T03:10:21.651Z,6.38
2023-04-04T03:15:25.742Z,6.35
2023-04-04T03:20:28.655Z,6.37
2023-04-04T03:25:31.448Z,6.38
2023-04-04T03:30:34.458Z,6.39
2023-04-04T03:35:41.298Z,6.46
2023-04-04T03:40:44.478Z,6.39
2023-04-04T03:45:48.269Z,6.55
2023-04-04T03:50:51.145Z,6.58
2023-04-04T03:55:55.496Z,6.51
2023-04-04T04:00:58.141Z,6.48
2023-04-04T04:06:04.678Z,6.58
2023-04-04T04:11:09.085Z,6.50
2023-04-04T04:16:12.263Z,6.59
2023-04-04T04:21:16.205Z,6.68
2023-04-04T04:26:19.530Z,6.90
2023-04-04T04:31:23.799Z,7.04
2023-04-04T04:36:27.972Z,7.21
2023-04-04T04:41:39.892Z,7.55
2023-04-04T04:46:43.222Z,7.78
2023-04-04T04:51:50.402Z,8.03
2023-04-04T04:56:55.191Z,8.43
2023-04-04T05:01:58.413Z,8.56
2023-04-04T05:07:02.581Z,8.73
2023-04-04T05:12:05.927Z,8.70
2023-04-04T05:17:23.600Z,8.08
2023-04-04T05:22:29.717Z,8.11
2023-04-04T05:27:32.503Z,8.30
2023-04-04T05:32:38.213Z,8.32
2023-04-04T05:37:46.458Z,7.88
2023-04-04T05:42:56.751Z,7.75
2023-04-04T05:48:04.748Z,7.51
2023-04-04T05:53:12.731Z,7.63
2023-04-04T05:58:19.011Z,7.85
2023-04-04T06:03:26.385Z,8.19
2023-04-04T06:08:31.999Z,8.73
2023-04-04T06:13:36.361Z,9.30
2023-04-04T06:18:43.680Z,9.34
2023-04-04T06:23:46.375Z,9.52
2023-04-04T06:28:50.572Z,9.58
2023-04-04T06:34:13.736Z,10.34
2023-04-04T06:39:31.579Z,10.78
2023-04-04T06:44:37.563Z,10.77
2023-04-04T06:49:40.190Z,11.50
2023-04-04T06:54:43.999Z,12.20
2023-04-04T06:59:50.771Z,12.09
2023-04-04T07:04:53.518Z,11.89
2023-04-04T07:09:56.627Z,12.55
2023-04-04T07:14:59.369Z,12.49
2023-04-04T07:20:03.594Z,12.54
2023-04-04T07:25:08.669Z,12.53
2023-04-04T07:30:12.178Z,12.72
2023-04-04T07:35:14.890Z,12.88
2023-04-04T07:40:17.801Z,13.36
2023-04-04T07:45:21.732Z,13.60
2023-04-04T07:50:24.392Z,14.10
2023-04-04T07:55:27.053Z,14.56
2023-04-04T08:00:29.684Z,14.43
2023-04-04T08:05:32.870Z,13.79
2023-04-04T08:10:35.582Z,13.40
2023-04-04T08:15:38.600Z,13.26
2023-04-04T08:20:42.280Z,12.67
2023-04-04T08:25:46.892Z,12.53
2023-04-04T08:30:49.532Z,13.15
2023-04-04T08:35:52.241Z,13.42
2023-04-04T08:40:54.933Z,13.03
2023-04-04T08:45:59.284Z,13.42
2023-04-04T08:51:04.802Z,12.72
2023-04-04T08:56:07.580Z,12.65
2023-04-04T09:01:10.916Z,12.59
2023-04-04T09:06:14.099Z,12.98
2023-04-04T09:11:17.855Z,13.79
2023-04-04T09:16:20.628Z,14.32
2023-04-04T09:21:23.366Z,13.79
2023-04-04T09:26:26.139Z,14.22
2023-04-04T09:31:28.975Z,14.66
2023-04-04T09:36:32.604Z,15.15
2023-04-04T09:41:40.398Z,15.45
2023-04-04T09:46:43.227Z,15.25
2023-04-04T09:51:50.129Z,15.55
2023-04-04T09:56:52.797Z,15.87
2023-04-04T10:01:55.942Z,15.66
2023-04-04T10:07:00.139Z,15.41
2023-04-04T10:12:10.047Z,15.74
2023-04-04T10:17:13.625Z,15.84
2023-04-04T10:22:17.232Z,15.97
2023-04-04T10:27:21.224Z,15.95
2023-04-04T10:33:05.658Z,15.99
2023-04-04T10:38:08.805Z,15.61
2023-04-04T10:43:12.306Z,15.56
2023-04-04T10:48:15.516Z,15.07
2023-04-04T10:53:18.598Z,14.97
2023-04-04T10:58:22.760Z,15.11
2023-04-04T11:03:25.714Z,15.15
2023-04-04T11:08:28.775Z,15.07
2023-04-04T11:13:39.949Z,15.26
2023-04-04T11:18:42.493Z,15.41
2023-04-04T11:23:48.252Z,15.40
2023-04-04T11:28:51.159Z,15.21
2023-04-04T11:34:11.422Z,14.77
2023-04-04T11:39:24.761Z,14.22
2023-04-04T11:44:31.569Z,14.24
2023-04-04T11:49:36.989Z,14.42
2023-04-04T11:54:40.968Z,14.64
2023-04-04T11:59:46.753Z,14.35
2023-04-04T12:04:52.089Z,14.12
2023-04-04T12:09:57.056Z,13.93
2023-04-04T12:15:14.557Z,13.89
2023-04-04T12:20:23.945Z,14.01
2023-04-04T12:25:28.614Z,14.37
2023-04-04T12:30:32.344Z,14.28
2023-04-04T12:35:34.988Z,14.11
2023-04-04T12:40:39.220Z,14.08
2023-04-04T12:45:43.933Z,13.97
2023-04-04T12:50:54.746Z,14.08
2023-04-04T12:56:04.896Z,13.75
2023-04-04T13:01:08.493Z,13.47
2023-04-04T13:06:13.073Z,13.38
2023-04-04T13:11:15.715Z,13.35
2023-04-04T13:16:33.123Z,13.23
2023-04-04T13:21:35.813Z,13.06
2023-04-04T13:26:38.421Z,12.95
2023-04-04T13:31:41.878Z,12.90
2023-04-04T13:36:45.066Z,12.88
2023-04-04T13:41:47.712Z,12.86
2023-04-04T13:46:50.364Z,12.80
2023-04-04T13:51:53.094Z,12.76
2023-04-04T13:56:56.594Z,12.72
2023-04-04T14:01:59.270Z,12.68
2023-04-04T14:07:02.094Z,12.70
2023-04-04T14:12:04.915Z,12.52
2023-04-04T14:17:07.767Z,12.62
2023-04-04T14:22:10.591Z,12.68
2023-04-04T14:27:13.474Z,12.64
2023-04-04T14:32:16.347Z,12.37
2023-04-04T14:37:19.010Z,12.52
2023-04-04T14:42:21.755Z,12.41
2023-04-04T14:47:24.517Z,12.22
2023-04-04T14:52:28.887Z,12.09
2023-04-04T14:57:32.208Z,12.16
2023-04-04T15:02:38.344Z,12.08
2023-04-04T15:07:41.344Z,11.95
2023-04-04T15:12:44.531Z,11.82
2023-04-04T15:17:47.186Z,11.78
2023-04-04T15:22:49.932Z,11.53
2023-04-04T15:27:52.475Z,11.65
2023-04-04T15:32:58.162Z,11.54
2023-04-04T15:38:01.090Z,11.49
2023-04-04T15:43:03.749Z,11.48
2023-04-04T15:48:06.496Z,11.41
2023-04-04T15:53:09.135Z,11.43
2023-04-04T15:58:11.836Z,11.41
2023-04-04T16:03:14.863Z,11.32
2023-04-04T16:08:18.275Z,11.16
2023-04-04T16:13:20.915Z,11.23
2023-04-04T16:18:23.501Z,11.12
2023-04-04T16:23:26.199Z,11.08
2023-04-04T16:28:28.969Z,11.01
2023-04-04T16:33:31.887Z,10.96
2023-04-04T16:38:34.628Z,10.98
2023-04-04T16:43:37.307Z,10.93
2023-04-04T16:48:39.956Z,10.84
2023-04-04T16:53:42.505Z,10.76
2023-04-04T16:58:46.192Z,10.54
2023-04-04T17:03:49.476Z,10.63
2023-04-04T17:08:52.321Z,10.49
2023-04-04T17:13:55.615Z,10.56
2023-04-04T17:18:58.140Z,10.47
2023-04-04T17:24:00.841Z,10.53
2023-04-04T17:29:03.499Z,10.54
2023-04-04T17:34:06.950Z,10.30
2023-04-04T17:39:09.758Z,10.54
2023-04-04T17:44:12.508Z,10.57
2023-04-04T17:49:20.130Z,10.46
2023-04-04T17:54:23.281Z,10.37
2023-04-04T17:59:26.093Z,10.38
2023-04-04T18:04:29.325Z,10.38
2023-04-04T18:09:32.073Z,10.27
2023-04-04T18:14:34.830Z,10.13
2023-04-04T18:19:39.079Z,10.00
2023-04-04T18:24:42.998Z,9.80
2023-04-04T18:29:45.658Z,9.68
2023-04-04T18:34:48.518Z,9.54
2023-04-04T18:39:51.303Z,9.41
2023-04-04T18:44:53.922Z,9.02
2023-04-04T18:49:57.504Z,9.10
2023-04-04T18:55:00.278Z,8.82
2023-04-04T19:00:03.650Z,8.73
2023-04-04T19:05:07.350Z,8.71
2023-04-04T19:10:10.109Z,8.67
2023-04-04T19:15:12.855Z,8.54
2023-04-04T19:20:15.646Z,8.50
2023-04-04T19:25:19.002Z,8.39
2023-04-04T19:30:43.787Z,8.34
2023-04-04T19:35:58.965Z,8.41
2023-04-04T19:41:03.610Z,8.39
2023-04-04T19:46:11.877Z,8.31
2023-04-04T19:51:17.352Z,8.27
2023-04-04T19:56:21.697Z,8.16
2023-04-04T20:01:28.050Z,8.10
2023-04-04T20:06:31.815Z,7.97
2023-04-04T20:11:36.618Z,7.88
2023-04-04T20:16:39.295Z,7.82
2023-04-04T20:21:42.139Z,7.77
2023-04-04T20:26:52.550Z,7.68
2023-04-04T20:32:08.726Z,7.72
2023-04-04T20:37:23.747Z,7.67
2023-04-04T20:42:26.286Z,7.50
2023-04-04T20:47:42.792Z,7.43
2023-04-04T20:52:52.384Z,7.14
2023-04-04T20:57:59.170Z,7.29
2023-04-04T21:03:10.130Z,7.18
2023-04-04T21:08:22.293Z,7.08
2023-04-04T21:13:34.328Z,6.97
2023-04-04T21:18:37.266Z,6.79
2023-04-04T21:23:39.671Z,6.79
2023-04-04T21:28:46.189Z,6.83
2023-04-04T21:33:51.179Z,6.68
2023-04-04T21:38:56.182Z,6.82
2023-04-04T21:44:00.906Z,6.70
2023-04-04T21:49:05.259Z,6.77
2023-04-04T21:54:08.183Z,6.73
2023-04-04T21:59:10.849Z,6.73
2023-04-04T22:04:13.581Z,6.71
2023-04-04T22:09:16.373Z,6.64
2023-04-04T22:14:18.913Z,6.51
2023-04-04T22:19:23.600Z,6.44
2023-04-04T22:24:26.848Z,6.35
2023-04-04T22:29:29.616Z,6.27
2023-04-04T22:34:32.404Z,6.18
2023-04-04T22:39:35.043Z,6.11
2023-04-04T22:44:37.821Z,5.96
2023-04-04T22:49:48.563Z,5.71
2023-04-04T22:54:51.130Z,5.86
2023-04-04T22:59:53.721Z,5.75
2023-04-04T23:04:58.681Z,5.79
2023-04-04T23:10:01.431Z,5.56
2023-04-04T23:15:07.139Z,5.60
2023-04-04T23:20:10.121Z,5.57
2023-04-04T23:25:12.799Z,5.51
2023-04-04T23:30:15.561Z,5.47
2023-04-04T23:35:18.131Z,5.44
2023-04-04T23:40:21.141Z,5.34
2023-04-04T23:45:24.775Z,5.10
2023-04-04T23:50:27.436Z,5.04
2023-04-04T23:55:30.206Z,4.93
